Time;durP1;ratioP1;P1;durP2;ratioP2;P2;SDS_P1;SDS_P2;PMS_P1;PMS_P2;Temp;Humidity;BMP_temperature;BMP_pressure;BME280_temperature;BME280_humidity;BME280_pressure;Samples;Min_cycle;Max_cycle;Signal;HPM_P1;HPM_P2
2022/12/23 00:00:34;;;;;;;56.65;21.38;;;;;;;;;;6244237;28;20040;-78
2022/12/23 00:03:34;;;;;;;56.17;24.53;;;;;;;;;;6223469;28;20155;-77
2022/12/23 00:06:34;;;;;;;66.13;25.73;;;;;;;;;;6231650;28;20048;-76
2022/12/23 00:09:34;;;;;;;78.88;31.60;;;;;;;;;;6220581;28;20143;-78
2022/12/23 00:16:04;;;;;;;57.88;24.08;;;;;;;;;;6234657;28;20105;-78
2022/12/23 00:19:05;;;;;;;43.22;20.55;;;;;;;;;;6239155;28;20025;-78
2022/12/23 00:22:05;;;;;;;69.90;26.77;;;;;;;;;;6227221;28;20009;-78
2022/12/23 00:25:05;;;;;;;76.30;32.07;;;;;;;;;;6235963;28;20426;-78
2022/12/23 00:28:16;;;;;;;68.77;26.33;;;;;;;;;;6229265;28;20013;-77
2022/12/23 00:31:20;;;;;;;69.18;29.85;;;;;;;;;;6232923;28;20098;-76
2022/12/23 00:34:20;;;;;;;77.22;31.52;;;;;;;;;;6221226;28;20229;-78
2022/12/23 00:37:20;;;;;;;64.43;24.50;;;;;;;;;;6228987;28;20250;-77
2022/12/23 00:43:39;;;;;;;48.45;19.60;;;;;;;;;;6236606;28;20034;-77
2022/12/23 00:46:39;;;;;;;70.25;24.52;;;;;;;;;;6243082;28;20032;-76
2022/12/23 00:49:42;;;;;;;63.17;25.50;;;;;;;;;;6250175;28;20104;-76
2022/12/23 00:52:43;;;;;;;65.00;24.30;;;;;;;;;;6225037;28;20029;-76
2022/12/23 00:55:44;;;;;;;72.28;25.15;;;;;;;;;;6222768;28;20037;-77
2022/12/23 00:58:45;;;;;;;69.30;25.20;;;;;;;;;;6247930;28;20056;-78
2022/12/23 01:08:23;;;;;;;58.00;21.25;;;;;;;;;;6237298;28;20401;-78
2022/12/23 01:11:23;;;;;;;66.30;23.60;;;;;;;;;;6254664;28;20047;-79
2022/12/23 01:14:23;;;;;;;66.97;23.20;;;;;;;;;;6238036;28;20344;-77
2022/12/23 01:17:23;;;;;;;73.23;23.87;;;;;;;;;;6219913;28;20036;-77
2022/12/23 01:20:24;;;;;;;79.43;23.53;;;;;;;;;;6219346;28;20315;-78
2022/12/23 01:23:24;;;;;;;62.73;23.93;;;;;;;;;;6220741;28;20013;-78
2022/12/23 01:26:24;;;;;;;66.97;20.77;;;;;;;;;;6243870;28;20020;-79
2022/12/23 01:29:25;;;;;;;61.87;27.73;;;;;;;;;;6223926;28;20033;-78
2022/12/23 01:32:25;;;;;;;69.87;24.30;;;;;;;;;;6222646;28;20045;-78
2022/12/23 01:35:25;;;;;;;72.85;26.23;;;;;;;;;;6234994;28;20459;-78
2022/12/23 01:38:25;;;;;;;69.22;24.77;;;;;;;;;;6227249;28;20075;-79
2022/12/23 01:44:52;;;;;;;77.82;24.83;;;;;;;;;;6245915;28;20060;-78
2022/12/23 01:47:58;;;;;;;71.90;25.02;;;;;;;;;;6240964;28;20018;-79
2022/12/23 01:51:01;;;;;;;88.03;26.23;;;;;;;;;;6216661;28;20217;-78
2022/12/23 01:54:01;;;;;;;77.45;27.45;;;;;;;;;;6237721;28;20029;-79
2022/12/23 01:57:02;;;;;;;79.50;25.47;;;;;;;;;;6229654;28;20021;-79
2022/12/23 02:10:00;;;;;;;82.47;26.70;;;;;;;;;;6263656;28;20036;-78
2022/12/23 02:13:06;;;;;;;82.87;30.20;;;;;;;;;;6242963;28;20703;-78
2022/12/23 02:16:15;;;;;;;99.65;33.42;;;;;;;;;;6225419;28;20021;-78
2022/12/23 02:19:32;;;;;;;97.93;33.17;;;;;;;;;;6253588;28;20488;-78
2022/12/23 02:22:43;;;;;;;100.47;33.53;;;;;;;;;;6226964;28;20013;-79
2022/12/23 02:25:59;;;;;;;54.55;24.38;;;;;;;;;;6236663;28;20322;-78
2022/12/23 02:29:05;;;;;;;84.65;28.75;;;;;;;;;;6232604;28;20021;-77
2022/12/23 02:32:12;;;;;;;63.70;26.88;;;;;;;;;;6240223;28;20009;-78
2022/12/23 02:35:15;;;;;;;88.68;29.65;;;;;;;;;;6227598;28;20385;-78
2022/12/23 02:38:22;;;;;;;87.00;32.13;;;;;;;;;;6237871;28;20265;-78
2022/12/23 02:41:28;;;;;;;90.78;31.95;;;;;;;;;;6234711;28;20124;-79
2022/12/23 02:44:31;;;;;;;81.82;27.30;;;;;;;;;;6241517;28;20094;-79
2022/12/23 02:47:35;;;;;;;88.72;29.17;;;;;;;;;;6240883;28;20223;-79
2022/12/23 02:50:36;;;;;;;96.65;29.73;;;;;;;;;;6221022;28;20481;-79
2022/12/23 02:53:41;;;;;;;88.35;31.02;;;;;;;;;;6248348;28;20329;-78
2022/12/23 02:56:43;;;;;;;92.97;29.48;;;;;;;;;;6241151;28;20021;-78
2022/12/23 02:59:45;;;;;;;92.32;30.50;;;;;;;;;;6230393;28;20039;-78
2022/12/23 03:02:45;;;;;;;;;;;;;;;;;;6238759;28;20247;-78
2022/12/23 03:05:47;;;;;;;79.22;32.35;;;;;;;;;;6226612;28;19915;-78
2022/12/23 03:08:48;;;;;;;64.55;26.17;;;;;;;;;;6235272;28;20014;-78
2022/12/23 03:11:51;;;;;;;77.70;26.13;;;;;;;;;;6238324;28;20414;-79
2022/12/23 03:15:01;;;;;;;45.88;20.50;;;;;;;;;;6247045;28;20267;-77
2022/12/23 03:18:10;;;;;;;70.80;23.20;;;;;;;;;;6223241;28;20026;-77
2022/12/23 03:21:13;;;;;;;68.72;24.33;;;;;;;;;;6223578;28;20071;-77
2022/12/23 03:24:16;;;;;;;57.78;21.85;;;;;;;;;;6230842;28;20093;-79
2022/12/23 03:27:29;;;;;;;70.28;24.27;;;;;;;;;;6214782;28;20440;-78
2022/12/23 03:30:30;;;;;;;64.90;24.33;;;;;;;;;;6236491;28;20014;-78
2022/12/23 03:33:33;;;;;;;71.93;23.42;;;;;;;;;;6222989;28;20048;-78
2022/12/23 03:36:37;;;;;;;59.60;22.38;;;;;;;;;;6239574;28;20483;-79
2022/12/23 03:39:55;;;;;;;66.40;21.70;;;;;;;;;;6234552;28;20249;-79
2022/12/23 03:43:02;;;;;;;79.03;23.60;;;;;;;;;;6244609;28;20457;-79
2022/12/23 03:46:04;;;;;;;67.28;23.30;;;;;;;;;;6256635;28;20294;-79
2022/12/23 03:49:10;;;;;;;79.45;26.02;;;;;;;;;;6235726;28;20029;-78
2022/12/23 03:52:15;;;;;;;77.10;25.33;;;;;;;;;;6219406;28;20025;-79
2022/12/23 03:55:17;;;;;;;70.15;22.92;;;;;;;;;;6231328;28;20456;-79
2022/12/23 03:58:20;;;;;;;80.95;26.92;;;;;;;;;;6234319;28;20470;-79
2022/12/23 04:01:36;;;;;;;70.28;24.40;;;;;;;;;;6226153;28;20028;-78
2022/12/23 04:04:53;;;;;;;74.53;25.48;;;;;;;;;;6216331;28;20369;-79
2022/12/23 04:07:57;;;;;;;71.38;24.58;;;;;;;;;;6222131;28;20060;-78
2022/12/23 04:10:58;;;;;;;64.75;23.33;;;;;;;;;;6226658;28;20024;-79
2022/12/23 04:13:58;;;;;;;54.40;21.57;;;;;;;;;;6251453;28;20032;-78
2022/12/23 04:16:58;;;;;;;49.47;17.17;;;;;;;;;;6234475;28;20025;-78
2022/12/23 04:19:58;;;;;;;66.63;22.17;;;;;;;;;;6240977;28;20126;-79
2022/12/23 04:22:59;;;;;;;67.90;21.33;;;;;;;;;;6223933;28;20029;-79
2022/12/23 04:25:59;;;;;;;61.77;24.23;;;;;;;;;;6227618;28;20603;-78
2022/12/23 04:28:59;;;;;;;82.03;24.40;;;;;;;;;;6224590;28;20033;-77
2022/12/23 04:31:59;;;;;;;69.28;23.15;;;;;;;;;;6241961;28;20029;-77
2022/12/23 04:34:59;;;;;;;83.18;24.52;;;;;;;;;;6229314;28;20382;-79
2022/12/23 04:38:00;;;;;;;84.03;25.20;;;;;;;;;;6226992;28;20036;-79
2022/12/23 04:41:00;;;;;;;66.55;22.55;;;;;;;;;;6240220;28;20085;-79
2022/12/23 04:44:00;;;;;;;75.27;24.27;;;;;;;;;;6239036;28;20432;-79
2022/12/23 04:47:00;;;;;;;59.57;19.67;;;;;;;;;;6232401;28;20039;-79
2022/12/23 04:50:00;;;;;;;70.53;22.27;;;;;;;;;;6255343;28;20049;-78
2022/12/23 04:53:01;;;;;;;66.07;19.37;;;;;;;;;;6242967;28;20033;-79
2022/12/23 04:56:01;;;;;;;58.13;21.00;;;;;;;;;;6242439;28;20068;-80
2022/12/23 04:59:03;;;;;;;93.83;35.70;;;;;;;;;;6248863;28;20763;-78
2022/12/23 05:02:03;;;;;;;76.85;30.40;;;;;;;;;;6246039;28;20022;-79
2022/12/23 05:05:03;;;;;;;121.97;45.70;;;;;;;;;;6220273;28;20010;-79
2022/12/23 05:08:04;;;;;;;90.37;40.67;;;;;;;;;;6236778;28;20044;-78
2022/12/23 05:11:04;;;;;;;88.50;34.80;;;;;;;;;;6231716;28;20009;-78
2022/12/23 05:14:04;;;;;;;88.30;35.00;;;;;;;;;;6238808;28;20116;-78
2022/12/23 05:17:04;;;;;;;93.87;35.40;;;;;;;;;;6236785;28;20390;-78
2022/12/23 05:20:05;;;;;;;57.43;22.80;;;;;;;;;;6223987;28;20021;-78
2022/12/23 05:23:05;;;;;;;47.90;19.23;;;;;;;;;;6222689;28;20037;-78
2022/12/23 05:26:05;;;;;;;54.87;20.40;;;;;;;;;;6236953;28;20635;-78
2022/12/23 05:29:06;;;;;;;48.87;19.80;;;;;;;;;;6236260;28;20024;-78
2022/12/23 05:32:06;;;;;;;42.72;18.08;;;;;;;;;;6216126;28;20025;-78
2022/12/23 05:35:06;;;;;;;46.20;15.73;;;;;;;;;;6214150;28;20017;-77
2022/12/23 05:38:06;;;;;;;54.93;20.63;;;;;;;;;;6217339;28;20020;-78
2022/12/23 05:41:07;;;;;;;46.90;19.93;;;;;;;;;;6214010;28;20041;-77
2022/12/23 05:44:07;;;;;;;53.70;23.37;;;;;;;;;;6238639;28;20025;-77
2022/12/23 05:47:07;;;;;;;71.70;29.50;;;;;;;;;;6233186;28;20021;-76
2022/12/23 05:50:07;;;;;;;73.97;29.98;;;;;;;;;;6242926;28;20047;-78
2022/12/23 05:53:08;;;;;;;73.37;31.60;;;;;;;;;;6233642;28;20022;-79
2022/12/23 05:56:08;;;;;;;81.77;30.00;;;;;;;;;;6236385;28;20022;-79
2022/12/23 05:59:08;;;;;;;73.93;32.27;;;;;;;;;;6243011;28;20072;-78
2022/12/23 06:02:08;;;;;;;83.15;31.75;;;;;;;;;;6251319;28;20076;-78
2022/12/23 06:05:09;;;;;;;176.43;72.53;;;;;;;;;;6223822;28;20028;-78
2022/12/23 06:08:09;;;;;;;127.10;44.07;;;;;;;;;;6248002;28;20399;-79
2022/12/23 06:11:11;;;;;;;98.67;32.77;;;;;;;;;;6249058;28;20385;-80
2022/12/23 06:14:11;;;;;;;96.70;31.58;;;;;;;;;;6227194;28;20037;-78
2022/12/23 06:17:12;;;;;;;111.37;30.53;;;;;;;;;;6231898;28;20051;-77
2022/12/23 06:20:12;;;;;;;88.33;28.20;;;;;;;;;;6229023;28;20078;-78
2022/12/23 06:23:12;;;;;;;73.90;28.43;;;;;;;;;;6254090;28;20101;-79
2022/12/23 06:26:12;;;;;;;130.03;30.23;;;;;;;;;;6250119;28;20388;-79
2022/12/23 06:29:13;;;;;;;219.20;37.00;;;;;;;;;;6246141;28;20106;-78
2022/12/23 06:32:13;;;;;;;276.37;40.93;;;;;;;;;;6243863;28;20509;-79
2022/12/23 06:35:13;;;;;;;297.23;37.63;;;;;;;;;;6244782;28;20504;-78
2022/12/23 06:38:13;;;;;;;134.87;21.47;;;;;;;;;;6244050;28;20032;-79
2022/12/23 06:41:14;;;;;;;101.30;20.67;;;;;;;;;;6219964;28;20055;-78
2022/12/23 06:44:14;;;;;;;53.40;22.97;;;;;;;;;;6217498;28;20032;-77
2022/12/23 06:47:14;;;;;;;60.90;21.67;;;;;;;;;;6215907;28;20415;-78
2022/12/23 06:50:14;;;;;;;58.07;21.17;;;;;;;;;;6216060;28;20044;-78
2022/12/23 06:53:15;;;;;;;57.07;23.53;;;;;;;;;;6232470;28;20075;-77
2022/12/23 07:00:12;;;;;;;73.25;18.80;;;;;;;;;;6224419;28;20029;-78
2022/12/23 07:03:12;;;;;;;67.25;18.83;;;;;;;;;;6250107;28;20028;-78
2022/12/23 07:06:12;;;;;;;74.83;18.97;;;;;;;;;;6234736;28;20077;-79
2022/12/23 07:09:12;;;;;;;66.13;20.20;;;;;;;;;;6218204;28;20061;-78
2022/12/23 07:12:13;;;;;;;67.40;21.73;;;;;;;;;;6236387;28;20100;-78
2022/12/23 07:15:13;;;;;;;73.07;24.53;;;;;;;;;;6220702;28;20013;-79
2022/12/23 07:18:13;;;;;;;67.70;24.80;;;;;;;;;;6220163;28;20078;-79
2022/12/23 07:21:13;;;;;;;59.67;24.97;;;;;;;;;;6229193;28;20933;-80
2022/12/23 07:24:14;;;;;;;55.60;26.90;;;;;;;;;;6230995;28;20083;-78
2022/12/23 07:27:14;;;;;;;91.13;35.17;;;;;;;;;;6235629;28;20044;-80
2022/12/23 07:30:14;;;;;;;89.13;31.93;;;;;;;;;;6213422;28;20029;-77
2022/12/23 07:33:15;;;;;;;98.00;33.00;;;;;;;;;;6211235;28;20025;-78
2022/12/23 07:36:15;;;;;;;103.50;32.80;;;;;;;;;;6215282;28;20052;-79
2022/12/23 07:39:15;;;;;;;127.77;40.97;;;;;;;;;;6209924;28;20140;-79
2022/12/23 07:42:17;;;;;;;116.55;38.90;;;;;;;;;;6210069;28;20014;-81
2022/12/23 07:45:18;;;;;;;118.88;40.40;;;;;;;;;;6227295;28;20032;-80
2022/12/23 07:48:19;;;;;;;108.60;35.05;;;;;;;;;;6221811;28;20018;-83
2022/12/23 07:51:19;;;;;;;127.83;40.33;;;;;;;;;;6215436;28;20009;-84
2022/12/23 07:54:19;;;;;;;111.10;40.28;;;;;;;;;;6229868;28;20036;-80
2022/12/23 07:57:19;;;;;;;79.72;31.92;;;;;;;;;;6239665;28;20021;-81
2022/12/23 08:00:19;;;;;;;80.20;33.47;;;;;;;;;;6220086;28;20089;-83
2022/12/23 08:03:20;;;;;;;89.87;37.43;;;;;;;;;;6229736;28;20009;-82
2022/12/23 08:06:20;;;;;;;99.87;36.10;;;;;;;;;;6248713;28;20068;-81
2022/12/23 08:09:20;;;;;;;129.88;36.83;;;;;;;;;;6252770;28;20506;-81
2022/12/23 08:12:20;;;;;;;91.93;31.43;;;;;;;;;;6227142;28;20013;-81
2022/12/23 08:15:20;;;;;;;103.93;35.20;;;;;;;;;;6233087;28;20033;-80
2022/12/23 08:18:21;;;;;;;83.53;33.53;;;;;;;;;;6242315;28;20432;-80
2022/12/23 08:21:21;;;;;;;86.70;31.00;;;;;;;;;;6245747;28;20118;-82
2022/12/23 08:24:21;;;;;;;76.07;31.80;;;;;;;;;;6227162;28;20018;-81
2022/12/23 08:27:21;;;;;;;64.07;26.50;;;;;;;;;;6241257;28;20025;-84
2022/12/23 08:30:21;;;;;;;77.23;34.77;;;;;;;;;;6217589;28;20045;-82
2022/12/23 08:33:22;;;;;;;90.20;39.30;;;;;;;;;;6247262;28;20013;-82
2022/12/23 08:36:24;;;;;;;91.73;40.70;;;;;;;;;;6255564;28;20048;-81
2022/12/23 08:39:24;;;;;;;;;;;;;;;;;;6218549;28;20042;-81
2022/12/23 08:42:24;;;;;;;74.82;31.77;;;;;;;;;;6216651;28;19909;-83
2022/12/23 08:45:24;;;;;;;72.32;31.33;;;;;;;;;;6245222;28;20018;-79
2022/12/23 08:48:24;;;;;;;81.57;34.63;;;;;;;;;;6224045;28;20025;-78
2022/12/23 08:51:27;;;;;;;74.53;31.97;;;;;;;;;;6221856;28;20014;-86
2022/12/23 08:54:28;;;;;;;70.80;32.78;;;;;;;;;;6230921;28;20557;-80
2022/12/23 08:57:28;;;;;;;78.30;35.85;;;;;;;;;;6234836;28;20029;-82
2022/12/23 09:00:29;;;;;;;85.73;35.83;;;;;;;;;;6212205;28;20026;-82
2022/12/23 09:03:29;;;;;;;82.10;41.10;;;;;;;;;;6236877;28;20018;-79
2022/12/23 09:06:31;;;;;;;96.50;47.93;;;;;;;;;;6242510;28;20018;-81
2022/12/23 09:09:31;;;;;;;80.28;40.80;;;;;;;;;;6257377;28;20048;-82
2022/12/23 09:12:32;;;;;;;76.70;39.90;;;;;;;;;;6236601;28;20021;-81
2022/12/23 09:15:32;;;;;;;57.83;30.40;;;;;;;;;;6226201;28;20470;-81
2022/12/23 09:18:32;;;;;;;56.27;26.23;;;;;;;;;;6246408;28;20543;-81
2022/12/23 09:21:33;;;;;;;52.10;27.37;;;;;;;;;;6246493;28;20029;-80
2022/12/23 09:24:33;;;;;;;54.47;28.90;;;;;;;;;;6233924;28;20063;-80
2022/12/23 09:27:33;;;;;;;63.23;28.50;;;;;;;;;;6250082;28;20546;-82
2022/12/23 09:30:34;;;;;;;64.43;29.03;;;;;;;;;;6259327;28;20021;-79
2022/12/23 09:33:34;;;;;;;63.10;28.13;;;;;;;;;;6243932;28;20461;-77
2022/12/23 09:36:35;;;;;;;54.00;24.77;;;;;;;;;;6246850;28;20069;-79
2022/12/23 09:39:35;;;;;;;47.33;24.63;;;;;;;;;;6250712;28;20049;-80
2022/12/23 09:42:54;;;;;;;53.30;28.23;;;;;;;;;;6246984;28;20021;-80
2022/12/23 09:46:13;;;;;;;58.40;29.58;;;;;;;;;;6235214;28;20025;-81
2022/12/23 09:49:15;;;;;;;49.42;25.10;;;;;;;;;;6215565;28;20013;-80
2022/12/23 09:52:18;;;;;;;42.88;26.02;;;;;;;;;;6219531;28;20539;-79
2022/12/23 09:55:20;;;;;;;49.40;26.50;;;;;;;;;;6250377;28;20021;-78
2022/12/23 09:58:33;;;;;;;50.17;26.20;;;;;;;;;;6237868;28;20014;-80
2022/12/23 10:01:41;;;;;;;62.58;28.70;;;;;;;;;;6241564;28;20017;-77
2022/12/23 10:04:47;;;;;;;55.15;32.90;;;;;;;;;;6238660;28;20019;-79
2022/12/23 10:07:47;;;;;;;67.90;34.92;;;;;;;;;;6245312;28;20452;-80
2022/12/23 10:10:49;;;;;;;54.25;31.08;;;;;;;;;;6246260;28;20468;-77
2022/12/23 10:13:55;;;;;;;58.17;33.08;;;;;;;;;;6219321;28;20021;-77
2022/12/23 10:17:01;;;;;;;65.70;34.70;;;;;;;;;;6236260;28;20178;-77
2022/12/23 10:20:03;;;;;;;62.58;34.53;;;;;;;;;;6214487;28;20497;-82
2022/12/23 10:23:05;;;;;;;61.33;31.95;;;;;;;;;;6229642;28;20041;-79
2022/12/23 10:26:14;;;;;;;56.75;29.35;;;;;;;;;;6237607;28;20409;-79
2022/12/23 10:29:25;;;;;;;51.00;27.30;;;;;;;;;;6243195;28;20040;-81
2022/12/23 10:32:34;;;;;;;38.77;25.53;;;;;;;;;;6256907;28;20005;-79
2022/12/23 10:35:37;;;;;;;44.58;25.58;;;;;;;;;;6235014;28;20020;-82
2022/12/23 10:38:47;;;;;;;53.50;23.45;;;;;;;;;;6228907;28;20235;-80
2022/12/23 10:42:01;;;;;;;41.67;23.00;;;;;;;;;;6250735;28;20493;-82
2022/12/23 10:45:01;;;;;;;41.95;22.50;;;;;;;;;;6234207;28;20026;-79
2022/12/23 10:48:04;;;;;;;39.35;20.90;;;;;;;;;;6239389;28;20061;-81
2022/12/23 10:51:11;;;;;;;36.35;20.63;;;;;;;;;;6253795;28;20040;-81
2022/12/23 10:54:16;;;;;;;40.10;18.90;;;;;;;;;;6229165;28;20028;-80
2022/12/23 10:57:17;;;;;;;44.35;25.70;;;;;;;;;;6225923;28;20025;-79
2022/12/23 11:00:20;;;;;;;43.20;24.63;;;;;;;;;;6220902;28;19997;-79
2022/12/23 11:03:37;;;;;;;31.70;21.15;;;;;;;;;;6246239;28;20291;-80
2022/12/23 11:06:39;;;;;;;37.63;22.05;;;;;;;;;;6245717;28;20041;-79
2022/12/23 11:09:44;;;;;;;40.63;23.73;;;;;;;;;;6228068;28;20029;-81
2022/12/23 11:12:46;;;;;;;34.00;21.08;;;;;;;;;;6254024;28;20029;-81
2022/12/23 11:15:46;;;;;;;39.08;22.52;;;;;;;;;;6258619;28;20025;-82
2022/12/23 11:18:51;;;;;;;34.17;21.80;;;;;;;;;;6224503;28;20053;-81
2022/12/23 11:21:58;;;;;;;40.47;19.98;;;;;;;;;;6248891;28;20029;-80
2022/12/23 11:25:16;;;;;;;29.50;17.58;;;;;;;;;;6260202;28;20022;-79
2022/12/23 11:28:18;;;;;;;27.05;15.73;;;;;;;;;;6251432;28;20057;-80
2022/12/23 11:31:18;;;;;;;;;;;;;;;;;;6250336;28;20040;-78
2022/12/23 11:34:20;;;;;;;25.10;15.15;;;;;;;;;;6263456;28;19908;-77
2022/12/23 11:37:23;;;;;;;30.15;13.93;;;;;;;;;;6250164;28;20017;-81
2022/12/23 11:40:35;;;;;;;21.67;12.75;;;;;;;;;;6269891;28;20045;-82
2022/12/23 11:43:38;;;;;;;36.30;14.43;;;;;;;;;;6236004;28;20056;-82
2022/12/23 11:46:38;;;;;;;30.50;13.77;;;;;;;;;;6236289;28;20024;-79
2022/12/23 11:49:45;;;;;;;23.30;13.47;;;;;;;;;;6252057;28;20021;-79
2022/12/23 11:52:50;;;;;;;27.05;14.55;;;;;;;;;;6249797;28;20021;-81
2022/12/23 11:56:01;;;;;;;26.55;14.05;;;;;;;;;;6236395;28;20021;-82
2022/12/23 11:59:04;;;;;;;27.48;14.50;;;;;;;;;;6235145;28;20068;-80
2022/12/23 12:02:12;;;;;;;28.85;14.88;;;;;;;;;;6260652;28;20109;-79
2022/12/23 12:05:20;;;;;;;29.60;15.63;;;;;;;;;;6257393;28;20079;-78
2022/12/23 12:08:23;;;;;;;31.67;17.98;;;;;;;;;;6249625;28;20048;-80
2022/12/23 12:11:26;;;;;;;23.42;13.50;;;;;;;;;;6228155;28;20045;-80
2022/12/23 12:14:40;;;;;;;28.65;14.32;;;;;;;;;;6234780;28;20051;-81
2022/12/23 12:17:43;;;;;;;30.58;15.75;;;;;;;;;;6240418;28;20017;-81
2022/12/23 12:20:54;;;;;;;36.67;17.73;;;;;;;;;;6262562;28;20103;-80
2022/12/23 12:24:08;;;;;;;27.67;15.15;;;;;;;;;;6244523;28;20052;-81
2022/12/23 12:27:09;;;;;;;26.20;12.80;;;;;;;;;;6231426;28;20208;-79
2022/12/23 12:30:14;;;;;;;29.90;16.00;;;;;;;;;;6232771;28;20079;-82
2022/12/23 12:33:17;;;;;;;26.27;15.23;;;;;;;;;;6249866;28;20055;-82
2022/12/23 12:36:37;;;;;;;30.00;15.50;;;;;;;;;;6230772;28;20555;-83
2022/12/23 12:39:59;;;;;;;31.55;16.05;;;;;;;;;;6227441;28;20478;-78
2022/12/23 12:42:59;;;;;;;;;;;;;;;;;;6244618;28;20452;-79
2022/12/23 12:46:02;;;;;;;36.40;18.70;;;;;;;;;;6226566;28;19937;-79
2022/12/23 12:49:15;;;;;;;36.08;18.27;;;;;;;;;;6241325;28;20332;-79
2022/12/23 12:52:19;;;;;;;34.85;18.08;;;;;;;;;;6230672;28;20120;-79
2022/12/23 12:55:24;;;;;;;37.05;17.08;;;;;;;;;;6268310;28;20478;-79
2022/12/23 12:58:25;;;;;;;23.42;13.73;;;;;;;;;;6239906;28;20096;-79
2022/12/23 13:01:37;;;;;;;32.77;16.40;;;;;;;;;;6235033;28;20577;-78
2022/12/23 13:04:37;;;;;;;34.80;16.58;;;;;;;;;;6223868;28;20021;-79
2022/12/23 13:07:49;;;;;;;35.10;18.40;;;;;;;;;;6233964;28;20322;-78
2022/12/23 13:10:55;;;;;;;36.15;20.17;;;;;;;;;;6216954;28;20587;-78
2022/12/23 13:13:59;;;;;;;45.63;19.63;;;;;;;;;;6225059;28;20026;-79
2022/12/23 13:17:17;;;;;;;39.15;20.35;;;;;;;;;;6241391;28;20026;-79
2022/12/23 13:20:32;;;;;;;32.15;19.67;;;;;;;;;;6240874;28;20307;-78
2022/12/23 13:23:33;;;;;;;42.80;20.75;;;;;;;;;;6243746;28;20382;-78
2022/12/23 13:26:36;;;;;;;41.22;21.80;;;;;;;;;;6239445;28;20394;-79
2022/12/23 13:29:36;;;;;;;37.65;19.83;;;;;;;;;;6247134;28;20028;-78
2022/12/23 13:32:49;;;;;;;43.33;20.93;;;;;;;;;;6248723;28;20025;-77
2022/12/23 13:35:49;;;;;;;40.50;20.60;;;;;;;;;;6227099;28;20338;-78
2022/12/23 13:39:04;;;;;;;45.70;20.77;;;;;;;;;;6234707;28;20072;-78
2022/12/23 13:42:08;;;;;;;53.53;25.40;;;;;;;;;;6245795;28;20024;-77
2022/12/23 13:45:16;;;;;;;64.68;28.48;;;;;;;;;;6232021;28;20028;-78
2022/12/23 13:48:25;;;;;;;52.30;26.92;;;;;;;;;;6229877;28;20800;-77
2022/12/23 13:51:35;;;;;;;48.63;23.33;;;;;;;;;;6215147;28;20033;-79
2022/12/23 13:54:49;;;;;;;47.72;25.90;;;;;;;;;;6213856;28;20054;-78
2022/12/23 13:58:00;;;;;;;40.67;21.95;;;;;;;;;;6228438;28;20014;-79
2022/12/23 14:01:09;;;;;;;38.22;21.98;;;;;;;;;;6226099;28;20452;-79
2022/12/23 14:04:28;;;;;;;23.45;13.70;;;;;;;;;;6229892;28;20014;-79
2022/12/23 14:07:30;;;;;;;33.97;19.80;;;;;;;;;;6206050;28;20029;-79
2022/12/23 14:10:30;;;;;;;45.67;20.63;;;;;;;;;;6214595;28;20375;-78
2022/12/23 14:13:43;;;;;;;47.03;23.20;;;;;;;;;;6215806;28;20014;-78
2022/12/23 14:16:52;;;;;;;53.00;30.40;;;;;;;;;;6230812;28;20444;-79
2022/12/23 14:20:05;;;;;;;57.97;27.98;;;;;;;;;;6222483;28;20025;-78
2022/12/23 14:23:05;;;;;;;67.72;30.20;;;;;;;;;;6223368;28;20016;-79
2022/12/23 14:26:08;;;;;;;57.27;25.77;;;;;;;;;;6213421;28;20021;-78
2022/12/23 14:29:27;;;;;;;49.42;24.40;;;;;;;;;;6221556;28;20397;-79
2022/12/23 14:32:37;;;;;;;57.17;27.85;;;;;;;;;;6219625;28;20022;-77
2022/12/23 14:35:43;;;;;;;37.17;20.10;;;;;;;;;;6215991;28;20050;-77
2022/12/23 14:39:03;;;;;;;34.47;21.65;;;;;;;;;;6228162;28;20386;-78
2022/12/23 14:42:04;;;;;;;37.15;23.08;;;;;;;;;;6212551;28;20407;-79
2022/12/23 14:45:26;;;;;;;46.60;26.60;;;;;;;;;;6214124;28;20076;-77
2022/12/23 14:48:33;;;;;;;68.53;35.33;;;;;;;;;;6229494;28;20022;-77
2022/12/23 14:51:35;;;;;;;62.67;32.85;;;;;;;;;;6239471;28;20028;-79
2022/12/23 14:54:37;;;;;;;67.20;38.70;;;;;;;;;;6249335;28;20579;-78
2022/12/23 14:57:37;;;;;;;77.88;43.33;;;;;;;;;;6242608;28;20049;-77
2022/12/23 15:00:45;;;;;;;43.63;26.87;;;;;;;;;;6234687;28;20023;-78
2022/12/23 15:03:49;;;;;;;46.42;26.58;;;;;;;;;;6227630;28;20032;-77
2022/12/23 15:06:50;;;;;;;49.60;28.13;;;;;;;;;;6218061;28;20041;-78
2022/12/23 15:09:55;;;;;;;68.07;38.85;;;;;;;;;;6236256;28;20302;-78
2022/12/23 15:12:56;;;;;;;98.30;55.67;;;;;;;;;;6237676;28;20504;-78
2022/12/23 15:15:56;;;;;;;59.73;37.73;;;;;;;;;;6236164;28;20106;-80
2022/12/23 15:18:59;;;;;;;49.60;30.60;;;;;;;;;;6231496;28;20261;-78
2022/12/23 15:22:07;;;;;;;66.32;35.97;;;;;;;;;;6220261;28;20032;-78
2022/12/23 15:25:25;;;;;;;82.15;48.63;;;;;;;;;;6226466;28;20033;-79
2022/12/23 15:28:33;;;;;;;55.20;32.47;;;;;;;;;;6226503;28;20025;-78
2022/12/23 15:31:41;;;;;;;61.80;37.15;;;;;;;;;;6217151;28;20105;-78
2022/12/23 15:34:42;;;;;;;60.28;36.17;;;;;;;;;;6232906;28;20486;-79
2022/12/23 15:37:42;;;;;;;60.53;36.20;;;;;;;;;;6224286;28;20103;-79
2022/12/23 15:40:54;;;;;;;73.47;39.80;;;;;;;;;;6236658;28;20052;-79
2022/12/23 15:43:55;;;;;;;285.50;120.32;;;;;;;;;;6236691;28;20020;-79
2022/12/23 15:46:55;;;;;;;120.87;55.70;;;;;;;;;;6245532;28;20017;-78
2022/12/23 15:49:59;;;;;;;62.40;32.33;;;;;;;;;;6242271;28;20471;-77
2022/12/23 15:53:03;;;;;;;54.13;29.35;;;;;;;;;;6239460;28;20096;-79
2022/12/23 15:56:05;;;;;;;49.10;28.45;;;;;;;;;;6218335;28;20651;-79
2022/12/23 15:59:13;;;;;;;47.28;28.45;;;;;;;;;;6217426;28;20390;-78
2022/12/23 16:02:25;;;;;;;49.15;29.40;;;;;;;;;;6207169;28;20017;-77
2022/12/23 16:05:30;;;;;;;46.38;27.10;;;;;;;;;;6232958;28;20009;-78
2022/12/23 16:08:31;;;;;;;49.03;27.90;;;;;;;;;;6210338;28;20018;-78
2022/12/23 16:11:48;;;;;;;96.03;48.73;;;;;;;;;;6228388;28;20037;-78
2022/12/23 16:14:53;;;;;;;62.58;33.33;;;;;;;;;;6217088;28;20113;-78
2022/12/23 16:18:12;;;;;;;53.05;27.77;;;;;;;;;;6241470;28;20018;-79
2022/12/23 16:21:12;;;;;;;49.33;27.90;;;;;;;;;;6227468;28;20018;-78
2022/12/23 16:24:13;;;;;;;49.70;27.30;;;;;;;;;;6242286;28;20028;-79
2022/12/23 16:27:15;;;;;;;52.43;26.17;;;;;;;;;;6234081;28;20018;-77
2022/12/23 16:30:17;;;;;;;58.40;29.75;;;;;;;;;;6212780;28;20014;-78
2022/12/23 16:33:23;;;;;;;53.80;30.42;;;;;;;;;;6225691;28;20048;-77
2022/12/23 16:36:23;;;;;;;57.88;30.33;;;;;;;;;;6232399;28;20069;-78
2022/12/23 16:39:23;;;;;;;51.55;28.48;;;;;;;;;;6231891;28;20041;-78
2022/12/23 16:42:24;;;;;;;52.20;29.37;;;;;;;;;;6214949;28;20017;-78
2022/12/23 16:45:24;;;;;;;48.47;25.92;;;;;;;;;;6220251;28;20105;-79
2022/12/23 16:48:33;;;;;;;56.23;35.57;;;;;;;;;;6236800;28;20409;-78
2022/12/23 16:51:33;;;;;;;55.10;31.10;;;;;;;;;;6218149;28;20020;-77
2022/12/23 16:54:33;;;;;;;67.40;39.53;;;;;;;;;;6244118;28;20025;-81
2022/12/23 16:57:33;;;;;;;57.23;34.40;;;;;;;;;;6232032;28;20040;-80
2022/12/23 17:00:34;;;;;;;69.03;39.33;;;;;;;;;;6221399;28;20017;-79
2022/12/23 17:03:37;;;;;;;65.90;37.73;;;;;;;;;;6244663;28;20084;-80
2022/12/23 17:06:39;;;;;;;62.67;35.90;;;;;;;;;;6238145;28;20280;-79
2022/12/23 17:09:39;;;;;;;63.63;34.67;;;;;;;;;;6233739;28;20100;-80
2022/12/23 17:12:40;;;;;;;66.33;36.73;;;;;;;;;;6227585;28;20551;-80
2022/12/23 17:15:40;;;;;;;75.80;42.70;;;;;;;;;;6250803;28;20104;-80
2022/12/23 17:18:40;;;;;;;70.73;38.23;;;;;;;;;;6221641;28;20077;-80
2022/12/23 17:21:42;;;;;;;63.17;37.17;;;;;;;;;;6233041;28;20751;-78
2022/12/23 17:24:42;;;;;;;57.47;33.40;;;;;;;;;;6239387;28;20018;-80
2022/12/23 17:27:43;;;;;;;68.83;34.77;;;;;;;;;;6235932;28;20345;-80
2022/12/23 17:30:44;;;;;;;67.37;33.47;;;;;;;;;;6211466;28;20166;-79
2022/12/23 17:33:44;;;;;;;47.30;22.47;;;;;;;;;;6241473;28;20021;-81
2022/12/23 17:36:44;;;;;;;60.73;30.40;;;;;;;;;;6228734;28;20013;-81
2022/12/23 17:39:45;;;;;;;70.17;33.17;;;;;;;;;;6240153;28;20050;-80
2022/12/23 17:42:46;;;;;;;77.80;41.20;;;;;;;;;;6226241;28;20017;-78
2022/12/23 17:45:46;;;;;;;87.65;39.63;;;;;;;;;;6218650;28;20014;-80
2022/12/23 17:48:46;;;;;;;76.25;39.22;;;;;;;;;;6235644;28;20065;-80
2022/12/23 17:51:47;;;;;;;72.83;37.50;;;;;;;;;;6220887;28;20594;-80
2022/12/23 17:54:49;;;;;;;74.50;39.27;;;;;;;;;;6222480;28;20075;-81
2022/12/23 17:57:51;;;;;;;71.00;38.22;;;;;;;;;;6220436;28;20022;-80
2022/12/23 18:00:51;;;;;;;76.28;42.85;;;;;;;;;;6233316;28;20093;-80
2022/12/23 18:03:51;;;;;;;125.17;62.90;;;;;;;;;;6223508;28;20006;-80
2022/12/23 18:06:52;;;;;;;104.47;58.23;;;;;;;;;;6224510;28;20014;-80
2022/12/23 18:09:52;;;;;;;89.63;53.93;;;;;;;;;;6228089;28;20021;-80
2022/12/23 18:12:54;;;;;;;92.63;54.10;;;;;;;;;;6223816;28;20033;-79
2022/12/23 18:15:56;;;;;;;92.40;56.13;;;;;;;;;;6215732;28;20118;-81
2022/12/23 18:18:56;;;;;;;92.70;53.03;;;;;;;;;;6251451;28;20375;-80